vendredi 08 novembre 2019

Le classement original se trouve sur : http://ultratiming.be/
CHALLENGE DES CORRIDAS HIVERNALES
LA CORRIDA D'ORSINFAING
DISTANCE : 9.97 km
vendredi 08 novembre 2019
 
Place dos NOM Catégorie Pl/cat temps temps/km Vitesse
1 1380 ANSELME RENAUD SEH 1 00:38:20 03:51 15.60
2 1428 MAKACI MOURAD V1H 1 00:38:46 03:53 15.43
3 1227 POCHET ALEXANDRE V1H 2 00:39:18 03:57 15.22
4 1371 DEBOUCHEZ V1H 3 00:39:24 03:57 15.18
5 1359 MERTZ NICOLAS SEH 2 00:39:27 03:57 15.16
6 1436 LEMAIRE CONSTANT SEH 3 00:39:56 04:00 14.97
7 1313 RENSON VINCENT SEH 4 00:40:15 04:02 14.86
8 1224 BODEUX JEAN-LUC V1H 4 00:40:31 04:04 14.76
9 1202 EL IDRISSI MUSTAFA V2H 1 00:41:14 04:08 14.50
10 1398 DE CONINCK V2H 2 00:41:18 04:09 14.48
11 1383 VERTÉ PATRICK V1H 5 00:41:27 04:10 14.43
12 1372 HEMMER DAMIEN SEH 5 00:41:46 04:11 14.32
13 1390 SANDER CHRIS SEH 6 00:41:47 04:12 14.31
14 1188 OUTMANNS MARTIN V1H 6 00:41:54 04:12 14.27
15 1399 CONTOR TOM SEH 7 00:42:06 04:13 14.20
16 1369 HENROTTE SÉBASTIEN V1H 7 00:42:10 04:14 14.18
17 1393 PICKE HERVÉ V2H 3 00:42:23 04:15 14.11
18 1443 LEYDER LOUIS SEH 8 00:42:34 04:16 14.05
19 2108 DEWEZ GUILLAUME SEH 9 00:42:51 04:18 13.96
20 2109 DUPONT AURÉLIEN SEH 10 00:43:18 04:21 13.81
21 1352 SCHOT THOMAS V1H 8 00:43:34 04:22 13.73
22 1333 LOUPPE DIDIER V2H 4 00:43:34 04:22 13.73
23 1433 RIJS CAROLINE SEF 1 00:43:38 04:23 13.71
24 1386 DREZEN ALAIN V2H 5 00:43:43 04:23 13.68
25 1203 EILON OREN V1H 9 00:44:03 04:25 13.58
26 1184 WELVAERT QUENTIN SEH 11 00:44:04 04:25 13.57
27 1427 CONNIASSELLE V1H 10 00:44:27 04:28 13.45
28 1382 DAUTUN GRÉGORY V1H 11 00:44:30 04:28 13.44
29 1341 STEFFEN JOHN SEH 12 00:44:32 04:28 13.43
30 1424 KIMUS DAVID SEH 13 00:44:34 04:28 13.42
31 1425 MATHAY SAMUEL SEH 14 00:45:09 04:32 13.24
32 1392 PIERRARD CHRISTIAN V2H 6 00:45:27 04:34 13.16
33 2107 DEMARCHE FLORIAN SEH 15 00:45:43 04:35 13.08
34 1452 VAN MENSEL FRANCK SEH 16 00:45:58 04:37 13.01
35 1422 BRESSARD DENIS SEH 17 00:46:13 04:38 12.94
36 1358 WUILLIAUME V1H 12 00:46:23 04:39 12.89
37 1319 DE CONINCK STÉPHANIE V1F 1 00:46:29 04:40 12.86
38 1447 DEOM WILLIAM SEH 18 00:46:38 04:41 12.82
39 1444 ORBAN MANUEL SEH 19 00:47:00 04:43 12.72
40 1391 WATELET FRANÇOIS V1H 13 00:47:21 04:45 12.63
41 2034 BAIJOT FABRICE V1H 14 00:47:21 04:45 12.63
42 1406 ROBERT NICOLAS SEH 20 00:47:38 04:47 12.55
43 1208 MILLARD YANNICK V2H 7 00:47:48 04:48 12.51
44 1381 LECOMTE LIO V2H 8 00:48:19 04:51 12.38
45 2106 DELAFONTAINE SIMON V1H 15 00:48:22 04:51 12.36
46 1434 BOUDOU YOUSSEF SEH 21 00:48:52 04:54 12.24
47 2123 PIROT ANAÏS SEF 2 00:48:54 04:54 12.23
48 1346 BRANLE THIERRY SEH 22 00:48:54 04:54 12.23
49 1394 GODFROID THOMAS SEH 23 00:49:12 04:56 12.15
50 1432 KARPECHENKO DIMITRI V1H 16 00:49:54 05:00 11.98
51 1220 VANSTRAELEN LAURENT SEH 24 00:50:11 05:02 11.92
52 1445 GIOT YANNIC V1H 17 00:50:13 05:02 11.91
53 1225 DETAILLE FRANCOIS SEH 25 00:50:17 05:03 11.89
54 1217 FRANÇOIS LÉANDRE V1H 18 00:50:19 05:03 11.88
55 1411 GOFFIN JEAN CLAUDE V2H 9 00:50:20 05:03 11.88
56 2121 NOEL THOMAS V1H 19 00:50:33 05:04 11.83
57 1417 FELTGEN STÉPHANE V1H 20 00:50:39 05:05 11.81
58 1228 CHARVET ALBAN V1H 21 00:50:44 05:05 11.79
59 1377 DELAIT OLIVIER V2H 10 00:50:50 05:06 11.76
60 1442 LAMY ISABELLE V2F 1 00:50:53 05:06 11.75
61 1197 BALAND PAULIN SEH 26 00:51:04 05:07 11.71
62 1414 WENKIN LOUISE SEF 3 00:51:05 05:08 11.71
63 1198 COLLOTTE SÉBASTIEN SEH 27 00:51:21 05:09 11.65
64 1318 VAN DE WIELE BRUNO V2H 11 00:51:37 05:11 11.59
65 2119 MINET VÉRONIQUE SEF 4 00:52:07 05:14 11.47
66 1189 ROCHET JULIEN V1H 22 00:52:14 05:14 11.45
67 1362 OGER BRUNO V2H 12 00:52:17 05:15 11.44
68 1361 FELTESSE RENAUD V1H 23 00:52:24 05:15 11.41
69 1426 MAHY ALAIN V3H 1 00:52:38 05:17 11.36
70 1379 ROBERT BRUNO SEH 28 00:52:43 05:17 11.34
71 1344 PEERDEMAN V3F 1 00:52:46 05:18 11.33
72 1353 PONCIN PASCAL V2H 13 00:53:14 05:20 11.23
73 1454 MONAVILLE AMALIA V1F 2 00:53:28 05:22 11.18
74 1302 FEYDER TAMARA SEF 5 00:53:30 05:22 11.18
75 1363 BAIJOT REGINE V2F 2 00:54:14 05:26 11.03
76 1301 GILSON DELPHINE V1F 3 00:54:17 05:27 11.02
77 1435 PIERRARD VINCENT V2H 14 00:54:27 05:28 10.98
78 2115 JEAN LAETITIA SEF 6 00:54:42 05:29 10.93
79 1440 BONFILS ELVIRE V1F 4 00:54:58 05:31 10.88
80 1449 PIPART FABRICE V1H 24 00:55:21 05:33 10.80
81 2110 ENGLEBERT SIMON SEH 29 00:55:26 05:34 10.79
82 1404 WEBER TAMARA V1F 5 00:55:29 05:34 10.78
83 2129 GUY FELLERICH V2H 15 00:55:39 05:35 10.75
84 1431 THOMAS DYLAN SEH 30 00:56:25 05:40 10.60
85 1194 ROBERT BRIEUC SEH 31 00:56:29 05:40 10.59
86 1320 MERTZ LÉONIE SEF 7 00:56:31 05:40 10.58
87 1410 PONCIN GAËL SEH 32 00:56:43 05:41 10.54
88 1448 PIPART FRANCIS SEH 33 00:56:58 05:43 10.50
89 1423 MARTELANGE JEAN V2H 16 00:56:58 05:43 10.50
90 1441 MERVILLE VINCENT V2H 17 00:57:15 05:45 10.45
91 2125 RIE PAULINE SEF 8 00:57:26 05:46 10.41
92 1450 RADERMECKER MICHEL V1H 25 00:57:48 05:48 10.35
93 1451 DELOSSEDAS HELENE V1F 6 00:57:48 05:48 10.35
94 1429 HENQUIN GAËTAN SEH 34 00:58:18 05:51 10.26
95 1408 WELVAERT JULES V3H 2 00:58:30 05:52 10.22
96 2173 CLAES DITCH V1H 26 00:58:50 05:54 10.16
97 2114 GREGOIRE ALAIN V1H 27 00:59:09 05:56 10.11
98 1455 KEMP LUDOVINE V1F 7 00:59:33 05:58 10.04
99 1453 PICARD SONIA V1F 8 1:00:48 06:06 9.84
100 2120 NICAISSE VIRGINIE V1F 9 1:01:02 06:07 9.80
101 1389 EILON HADAS V1F 10 1:01:20 06:09 9.75
102 1397 SEGERS PIERRE V3H 3 1:02:19 06:15 9.60
103 1420 PAIROUX ALIX JEUF 1 1:02:21 06:15 9.59
104 1421 PAIROUX LAURENT V1H 28 1:02:26 06:16 9.58
105 1446 RASSENEUR CARINE V2F 3 1:03:09 06:20 9.47
106 1407 HENRARD VICTORIA SEF 9 1:04:25 06:28 9.28
107 1413 BRODDELEZ MAXENCE SEH 35 1:04:25 06:28 9.28
108 1415 STOCLET JÉRÔME V1H 29 1:07:17 06:45 8.89
109 1354 CROCHET CHANTAL V3F 2 1:07:39 06:47 8.84
110 1439 DAMIEN FRANÇOIS SEH 36 1:08:51 06:54 8.69
111 1438 DAMIEN CLÉMENT SEH 37 1:09:08 06:56 8.65
112 1437 TRIBOLET LISA SEF 10 1:09:08 06:56 8.65
113 1378 CUVELIER SANDRINE V1F 11 1:10:08 07:02 8.53
114 1430 COLLARD CLAUDY V3H 4 1:10:50 07:06 8.44